Time;durP1;ratioP1;P1;durP2;ratioP2;P2;SDS_P1;SDS_P2;PMS_P1;PMS_P2;Temp;Humidity;BMP_temperature;BMP_pressure;BME280_temperature;BME280_humidity;BME280_pressure;Samples;Min_cycle;Max_cycle;Signal;HPM_P1;HPM_P2
2022/12/27 00:01:15;;;;;;;24.17;18.38;;;5.00;99.90;;;;;;5097308;28;20434;-70
2022/12/27 00:03:42;;;;;;;19.70;17.60;;;5.00;99.90;;;;;;5097636;28;20040;-70
2022/12/27 00:06:09;;;;;;;19.20;17.60;;;5.10;99.90;;;;;;5097044;28;20064;-70
2022/12/27 00:08:35;;;;;;;20.35;18.50;;;4.90;99.90;;;;;;5097440;28;20040;-70
2022/12/27 00:11:12;;;;;;;20.25;18.35;;;4.90;99.90;;;;;;5096134;28;20430;-70
2022/12/27 00:13:38;;;;;;;20.55;18.65;;;4.90;99.90;;;;;;5096373;28;20417;-70
2022/12/27 00:16:10;;;;;;;20.40;18.20;;;4.90;99.90;;;;;;5096006;28;20044;-70
2022/12/27 00:18:37;;;;;;;19.80;18.15;;;4.90;99.90;;;;;;5097324;28;20044;-70
2022/12/27 00:21:04;;;;;;;26.92;18.33;;;4.80;99.90;;;;;;5096270;28;20039;-70
2022/12/27 00:23:36;;;;;;;18.77;17.27;;;4.70;99.90;;;;;;5097260;28;20132;-70
2022/12/27 00:26:04;;;;;;;18.55;17.15;;;4.70;99.90;;;;;;5095626;28;20444;-70
2022/12/27 00:28:31;;;;;;;19.88;17.70;;;4.70;99.90;;;;;;5097228;28;20059;-70
2022/12/27 00:30:58;;;;;;;20.55;18.00;;;4.70;99.90;;;;;;5096393;28;20046;-70
2022/12/27 00:33:29;;;;;;;19.27;17.63;;;4.70;99.90;;;;;;5095744;28;20555;-70
2022/12/27 00:35:58;;;;;;;18.27;16.50;;;4.70;99.90;;;;;;5097118;28;20035;-70
2022/12/27 00:38:24;;;;;;;24.35;17.45;;;4.70;99.90;;;;;;5096724;28;20463;-70
2022/12/27 00:40:50;;;;;;;23.42;17.92;;;4.80;99.90;;;;;;5095699;28;20044;-70
2022/12/27 00:43:15;;;;;;;27.02;19.23;;;4.80;99.90;;;;;;5096944;28;20089;-70
2022/12/27 00:45:43;;;;;;;21.05;19.17;;;4.80;99.90;;;;;;5096999;28;20379;-70
2022/12/27 00:48:09;;;;;;;20.40;18.42;;;4.90;99.90;;;;;;5096829;28;20076;-70
2022/12/27 00:50:34;;;;;;;20.27;18.35;;;4.90;99.90;;;;;;5096585;28;20370;-70
2022/12/27 00:53:00;;;;;;;19.58;17.10;;;4.90;99.90;;;;;;5096866;28;20115;-70
2022/12/27 00:55:26;;;;;;;18.73;16.80;;;5.00;99.90;;;;;;5095579;28;20452;-70
2022/12/27 00:57:51;;;;;;;18.55;15.18;;;5.00;99.90;;;;;;5097028;28;20097;-70
2022/12/27 01:00:17;;;;;;;21.73;16.00;;;5.00;99.90;;;;;;5096484;28;20044;-70
2022/12/27 01:02:43;;;;;;;21.15;14.82;;;5.00;99.90;;;;;;5096781;28;20047;-70
2022/12/27 01:05:09;;;;;;;16.80;13.02;;;5.00;99.90;;;;;;5096731;28;20051;-70
2022/12/27 01:07:34;;;;;;;17.48;11.50;;;5.00;99.90;;;;;;5096219;28;20036;-70
2022/12/27 01:10:00;;;;;;;12.70;10.98;;;5.10;99.90;;;;;;5096699;28;20048;-70
2022/12/27 01:12:26;;;;;;;17.77;10.27;;;5.10;99.90;;;;;;5096666;28;20036;-70
2022/12/27 01:14:51;;;;;;;14.30;8.80;;;5.10;99.90;;;;;;5096666;28;20058;-70
2022/12/27 01:17:17;;;;;;;15.75;8.95;;;5.10;99.90;;;;;;5095499;28;20162;-70
2022/12/27 01:19:43;;;;;;;11.63;8.40;;;5.20;99.90;;;;;;5078772;28;20040;-70
2022/12/27 01:22:08;;;;;;;14.70;9.05;;;5.20;99.90;;;;;;5095273;28;20044;-70
2022/12/27 01:24:34;;;;;;;14.35;8.82;;;5.20;99.90;;;;;;5096594;28;20146;-71
2022/12/27 01:27:00;;;;;;;13.30;10.07;;;5.20;99.90;;;;;;5096178;28;20052;-70
2022/12/27 01:29:25;;;;;;;28.48;26.10;;;5.30;99.90;;;;;;5095589;28;20421;-70
2022/12/27 01:31:51;;;;;;;28.88;26.38;;;5.40;99.90;;;;;;5078404;28;20074;-70
2022/12/27 01:34:18;;;;;;;28.80;26.85;;;5.50;99.90;;;;;;5096229;28;20071;-70
2022/12/27 01:36:44;;;;;;;29.55;26.70;;;5.60;99.90;;;;;;5096067;28;20368;-70
2022/12/27 01:39:11;;;;;;;31.98;28.98;;;5.70;99.90;;;;;;5096498;28;20047;-70
2022/12/27 01:44:41;;;;;;;32.90;30.25;;;5.80;99.90;;;;;;5100296;28;20059;-70
2022/12/27 01:47:31;;;;;;;33.65;31.10;;;6.00;99.90;;;;;;5100106;28;20334;-70
2022/12/27 01:50:19;;;;;;;32.05;29.60;;;6.00;99.90;;;;;;5100104;28;20032;-71
2022/12/27 01:52:55;;;;;;;31.52;28.70;;;5.70;99.90;;;;;;5100093;28;20051;-70
2022/12/27 01:55:27;;;;;;;;;;;5.50;99.90;;;;;;5100307;28;20093;-70
2022/12/27 01:57:57;;;;;;;26.73;23.98;;;5.50;99.90;;;;;;5099986;28;20260;-70
2022/12/27 02:00:23;;;;;;;26.83;24.63;;;5.60;99.90;;;;;;5100002;28;20051;-70
2022/12/27 02:02:49;;;;;;;29.33;26.92;;;5.60;99.90;;;;;;5098579;28;20365;-70
2022/12/27 02:05:18;;;;;;;28.65;26.10;;;5.70;99.90;;;;;;5099821;28;20047;-70
2022/12/27 02:08:14;;;;;;;23.25;21.13;;;5.70;99.90;;;;;;5099328;28;20044;-70
2022/12/27 02:10:41;;;;;;;36.17;32.83;;;5.70;99.90;;;;;;5099644;28;20036;-70
2022/12/27 02:13:07;;;;;;;38.97;35.58;;;5.70;99.90;;;;;;5099636;28;20422;-70
2022/12/27 02:15:33;;;;;;;43.65;39.97;;;5.60;99.90;;;;;;5099683;28;20036;-70
2022/12/27 02:17:59;;;;;;;48.00;44.72;;;5.60;99.90;;;;;;5099572;28;20040;-70
2022/12/27 02:20:27;;;;;;;65.10;60.35;;;5.50;99.90;;;;;;5099536;28;20367;-70
2022/12/27 02:26:38;;;;;;;65.75;61.25;;;5.50;99.90;;;;;;5099118;28;20067;-70
2022/12/27 02:29:11;;;;;;;66.22;62.22;;;5.40;99.90;;;;;;5099473;28;20083;-70
2022/12/27 02:31:49;;;;;;;69.63;64.72;;;5.30;99.90;;;;;;5099345;28;20115;-70
2022/12/27 02:34:54;;;;;;;69.05;64.20;;;5.40;99.90;;;;;;5098291;28;20064;-70
2022/12/27 02:37:23;;;;;;;66.60;62.22;;;5.40;99.90;;;;;;5098867;28;20072;-70
2022/12/27 02:39:50;;;;;;;65.28;61.38;;;5.40;99.90;;;;;;5098093;28;20040;-70
2022/12/27 02:54:13;;;;;;;69.25;65.25;;;5.40;99.90;;;;;;5098136;28;20055;-70
2022/12/27 02:57:08;;;;;;;73.68;68.45;;;5.40;99.90;;;;;;5098818;28;20050;-70
2022/12/27 03:15:53;;;;;;;76.00;71.30;;;5.20;99.90;;;;;;5098689;28;20050;-70
2022/12/27 03:18:26;;;;;;;70.78;66.25;;;5.30;99.90;;;;;;5097962;28;20105;-70
2022/12/27 03:26:28;;;;;;;77.47;72.20;;;5.20;99.90;;;;;;5097854;28;20131;-70
2022/12/27 03:34:37;;;;;;;66.53;62.63;;;5.30;99.90;;;;;;5097861;28;20078;-70
2022/12/27 03:40:34;;;;;;;66.78;62.40;;;5.30;99.90;;;;;;5098097;28;20059;-69
2022/12/27 03:43:12;;;;;;;67.28;61.47;;;5.20;99.90;;;;;;5096991;28;20047;-70
2022/12/27 03:48:45;;;;;;;66.88;62.45;;;5.20;99.90;;;;;;5097869;28;20102;-70
2022/12/27 03:51:13;;;;;;;69.20;64.95;;;5.30;99.90;;;;;;5096501;28;20378;-70
2022/12/27 03:53:42;;;;;;;72.63;67.30;;;5.40;99.90;;;;;;5097932;28;20048;-70
2022/12/27 03:56:08;;;;;;;68.25;63.53;;;5.40;99.90;;;;;;5097702;28;20040;-70
2022/12/27 03:58:34;;;;;;;57.95;54.30;;;5.40;99.90;;;;;;5097616;28;20123;-69
2022/12/27 04:01:00;;;;;;;58.95;54.55;;;5.20;99.90;;;;;;5097293;28;20143;-70
2022/12/27 04:03:26;;;;;;;59.85;55.47;;;5.20;99.90;;;;;;5096501;28;20044;-70
2022/12/27 04:05:51;;;;;;;57.97;54.38;;;5.30;99.90;;;;;;5096185;28;20040;-70
2022/12/27 04:35:40;;;;;;;46.40;42.97;;;5.00;99.90;;;;;;5097165;28;20048;-70
2022/12/27 04:38:06;;;;;;;47.17;43.85;;;5.00;99.90;;;;;;5096339;28;20047;-70
2022/12/27 04:57:04;;;;;;;56.33;52.42;;;5.20;99.90;;;;;;5096928;28;20093;-70
2022/12/27 05:02:15;;;;;;;60.70;56.88;;;5.40;99.90;;;;;;5095546;28;20376;-70
2022/12/27 05:04:41;;;;;;;59.83;55.35;;;5.50;99.90;;;;;;5095823;28;20040;-70
2022/12/27 05:15:24;;;;;;;56.13;52.45;;;5.60;99.90;;;;;;5095891;28;20044;-70
2022/12/27 05:17:50;;;;;;;58.92;53.88;;;5.60;99.90;;;;;;5098378;28;20417;-70
2022/12/27 05:20:16;;;;;;;54.00;50.00;;;5.40;99.90;;;;;;5099777;28;20067;-70
2022/12/27 05:25:37;;;;;;;48.35;44.55;;;5.20;99.90;;;;;;5100645;28;20051;-70
2022/12/27 05:28:04;;;;;;;46.25;42.70;;;5.10;99.90;;;;;;5100077;28;20055;-70
2022/12/27 05:30:35;;;;;;;46.40;42.72;;;5.10;99.90;;;;;;5100757;28;20375;-70
2022/12/27 05:33:01;;;;;;;44.72;41.35;;;5.10;99.90;;;;;;5099507;28;20119;-70
2022/12/27 05:35:27;;;;;;;43.65;40.67;;;5.10;99.90;;;;;;5100432;28;20028;-70
2022/12/27 05:37:54;;;;;;;41.30;38.03;;;5.10;99.90;;;;;;5099971;28;20044;-70
2022/12/27 05:40:23;;;;;;;43.42;40.22;;;5.20;99.90;;;;;;5099474;28;20086;-70
2022/12/27 05:42:49;;;;;;;39.25;36.25;;;5.10;99.90;;;;;;5099930;28;20040;-69
2022/12/27 05:45:15;;;;;;;38.78;35.65;;;5.10;99.90;;;;;;5100246;28;20036;-70
2022/12/27 05:47:41;;;;;;;43.88;40.50;;;5.10;99.90;;;;;;5100116;28;20040;-70
2022/12/27 05:50:08;;;;;;;39.97;37.08;;;5.20;99.90;;;;;;5100128;28;20032;-70
2022/12/27 05:52:33;;;;;;;43.50;40.00;;;5.10;99.90;;;;;;5099802;28;20046;-70
2022/12/27 05:54:59;;;;;;;47.17;43.92;;;5.10;99.90;;;;;;5100058;28;20115;-70
2022/12/27 05:57:25;;;;;;;47.08;43.78;;;5.10;99.90;;;;;;5100043;28;20329;-70
2022/12/27 05:59:50;;;;;;;42.17;39.33;;;5.20;99.90;;;;;;5099912;28;20051;-70
2022/12/27 06:02:16;;;;;;;40.38;37.63;;;5.10;99.90;;;;;;5099896;28;20039;-70
2022/12/27 06:04:42;;;;;;;37.40;34.50;;;5.00;99.90;;;;;;5098900;28;20071;-70
2022/12/27 06:07:10;;;;;;;36.50;33.88;;;4.90;99.90;;;;;;5098013;28;20105;-70
2022/12/27 06:09:35;;;;;;;38.40;34.70;;;5.10;99.90;;;;;;5099469;28;20438;-70
2022/12/27 06:12:01;;;;;;;36.80;34.03;;;5.20;99.90;;;;;;5098751;28;20071;-70
2022/12/27 06:14:27;;;;;;;36.55;34.10;;;5.10;99.90;;;;;;5099659;28;20047;-70
2022/12/27 06:16:52;;;;;;;36.20;33.40;;;5.00;99.90;;;;;;5099331;28;20113;-70
2022/12/27 06:19:18;;;;;;;48.17;44.70;;;4.90;99.90;;;;;;5099277;28;20044;-70
2022/12/27 06:21:44;;;;;;;43.38;40.58;;;4.80;99.90;;;;;;5099542;28;20128;-70
2022/12/27 06:24:09;;;;;;;31.42;28.70;;;4.80;99.90;;;;;;5098253;28;20093;-70
2022/12/27 06:26:35;;;;;;;31.83;29.13;;;4.90;99.90;;;;;;5098998;28;20044;-70
2022/12/27 06:29:01;;;;;;;36.40;33.15;;;4.80;99.90;;;;;;5080047;28;20044;-70
2022/12/27 06:31:26;;;;;;;41.35;38.40;;;4.80;99.90;;;;;;5099142;28;20032;-70
2022/12/27 06:33:53;;;;;;;51.97;48.20;;;4.80;99.90;;;;;;5099318;28;20036;-69
2022/12/27 06:36:22;;;;;;;55.50;51.63;;;4.80;99.90;;;;;;5099292;28;20055;-70
2022/12/27 06:38:48;;;;;;;52.78;48.78;;;4.90;99.90;;;;;;5098955;28;20093;-70
2022/12/27 06:41:16;;;;;;;56.35;51.67;;;5.00;99.90;;;;;;5097927;28;20051;-70
2022/12/27 06:43:42;;;;;;;52.25;48.65;;;5.00;99.90;;;;;;5097805;28;20040;-70
2022/12/27 06:46:16;;;;;;;54.03;49.88;;;4.90;99.90;;;;;;5097772;28;20092;-70
2022/12/27 06:48:43;;;;;;;54.53;50.22;;;4.90;99.90;;;;;;5080877;28;20040;-70
2022/12/27 06:51:10;;;;;;;55.47;50.85;;;5.00;99.90;;;;;;5098974;28;20039;-70
2022/12/27 06:53:36;;;;;;;54.17;50.75;;;5.10;99.90;;;;;;5098905;28;20036;-70
2022/12/27 06:56:10;;;;;;;57.65;53.63;;;5.00;99.90;;;;;;5098907;28;20314;-70
2022/12/27 06:58:35;;;;;;;53.63;49.72;;;5.10;99.90;;;;;;5080865;28;20055;-70
2022/12/27 07:01:08;;;;;;;48.95;45.33;;;5.00;99.90;;;;;;5098770;28;20040;-70
2022/12/27 07:03:34;;;;;;;52.13;48.15;;;5.10;99.90;;;;;;5098456;28;20511;-70
2022/12/27 07:06:05;;;;;;;47.58;44.47;;;5.00;99.90;;;;;;5098370;28;20107;-70
2022/12/27 07:08:31;;;;;;;50.28;45.88;;;5.00;99.90;;;;;;5097934;28;20036;-70
2022/12/27 07:11:02;;;;;;;51.67;48.15;;;4.90;99.90;;;;;;5097319;28;20485;-70
2022/12/27 07:13:32;;;;;;;46.33;42.20;;;5.00;99.90;;;;;;5097557;28;20115;-70
2022/12/27 07:15:58;;;;;;;43.92;40.70;;;4.90;99.90;;;;;;5098502;28;20294;-69
2022/12/27 07:18:23;;;;;;;44.10;40.55;;;4.80;99.90;;;;;;5080513;28;20066;-70
2022/12/27 07:20:49;;;;;;;43.17;39.85;;;4.80;99.90;;;;;;5098056;28;20123;-70
2022/12/27 07:23:15;;;;;;;41.53;38.50;;;4.80;99.90;;;;;;5098366;28;20039;-69
2022/12/27 07:25:43;;;;;;;40.80;37.55;;;4.70;99.90;;;;;;5097895;28;20441;-69
2022/12/27 07:28:09;;;;;;;41.92;38.80;;;4.70;99.90;;;;;;5098112;28;20040;-71
2022/12/27 07:30:39;;;;;;;45.28;41.40;;;4.80;99.90;;;;;;5097898;28;20043;-70
2022/12/27 07:33:04;;;;;;;47.83;44.15;;;4.80;99.90;;;;;;5097178;28;20051;-70
2022/12/27 07:35:30;;;;;;;45.15;41.75;;;4.80;99.90;;;;;;5098121;28;20028;-70
2022/12/27 07:37:56;;;;;;;41.92;39.03;;;4.70;99.90;;;;;;5096607;28;20357;-69
2022/12/27 07:40:21;;;;;;;44.45;40.85;;;4.70;99.90;;;;;;5096458;28;20043;-69
2022/12/27 07:42:47;;;;;;;41.20;38.05;;;4.90;99.90;;;;;;5097952;28;20036;-69
2022/12/27 07:45:13;;;;;;;42.17;38.22;;;4.90;99.90;;;;;;5097651;28;20423;-69
2022/12/27 07:47:38;;;;;;;39.60;36.03;;;5.00;99.90;;;;;;5097806;28;20050;-69
2022/12/27 07:50:04;;;;;;;38.92;35.97;;;5.00;99.90;;;;;;5097811;28;20089;-71
2022/12/27 07:52:30;;;;;;;39.03;36.30;;;4.90;99.90;;;;;;5096908;28;20437;-68
2022/12/27 07:54:56;;;;;;;40.80;37.00;;;4.90;99.90;;;;;;5096785;28;20040;-68
2022/12/27 07:57:22;;;;;;;40.88;36.20;;;4.90;99.90;;;;;;5097699;28;20039;-69
2022/12/27 07:59:47;;;;;;;39.20;35.97;;;4.90;99.90;;;;;;5097677;28;20483;-69
2022/12/27 08:02:15;;;;;;;41.38;37.80;;;4.90;99.90;;;;;;5097283;28;20143;-69
2022/12/27 08:04:41;;;;;;;42.33;38.63;;;4.80;99.90;;;;;;5079505;28;20122;-70
2022/12/27 08:07:08;;;;;;;38.55;35.53;;;4.80;99.90;;;;;;5095142;28;20047;-69
2022/12/27 08:09:37;;;;;;;39.67;36.13;;;4.90;99.90;;;;;;5096272;28;20024;-70
2022/12/27 08:12:03;;;;;;;38.42;35.67;;;5.00;99.90;;;;;;5095734;28;20325;-72
2022/12/27 08:14:29;;;;;;;50.15;46.33;;;5.00;99.90;;;;;;5086961;28;20036;-70
2022/12/27 08:17:02;;;;;;;50.80;47.10;;;5.20;99.90;;;;;;5097401;28;20040;-66
2022/12/27 08:19:28;;;;;;;51.45;47.40;;;5.20;99.90;;;;;;5097358;28;20320;-66
2022/12/27 08:21:53;;;;;;;50.42;46.88;;;5.30;99.90;;;;;;5084100;28;20040;-67
2022/12/27 08:24:19;;;;;;;49.10;45.58;;;5.30;99.90;;;;;;5086441;28;20048;-67
2022/12/27 08:26:45;;;;;;;46.65;42.88;;;5.30;99.90;;;;;;5078807;28;20084;-67
2022/12/27 08:29:10;;;;;;;43.97;40.25;;;5.40;99.90;;;;;;5090326;28;20059;-67
2022/12/27 08:31:36;;;;;;;43.00;39.22;;;5.50;99.90;;;;;;5093693;28;20075;-67
2022/12/27 08:34:02;;;;;;;44.10;39.85;;;5.60;99.90;;;;;;5084693;28;20041;-67
2022/12/27 08:36:27;;;;;;;43.35;39.78;;;5.50;99.90;;;;;;5075541;28;20044;-67
2022/12/27 08:38:59;;;;;;;41.03;38.08;;;5.40;99.90;;;;;;5108971;28;20036;-66
2022/12/27 08:41:25;;;;;;;43.85;40.38;;;5.40;99.90;;;;;;5078948;28;20077;-67
2022/12/27 08:43:50;;;;;;;46.30;42.92;;;5.30;99.90;;;;;;5074379;28;20367;-67
2022/12/27 08:46:18;;;;;;;46.10;42.10;;;5.20;99.90;;;;;;5076507;28;20033;-67
2022/12/27 08:48:49;;;;;;;48.63;44.65;;;5.10;99.90;;;;;;5079607;28;20035;-68
2022/12/27 08:51:15;;;;;;;46.88;43.03;;;5.10;99.90;;;;;;5095470;28;20371;-67
2022/12/27 08:53:41;;;;;;;50.17;46.55;;;5.10;99.90;;;;;;5096193;28;20040;-68
2022/12/27 08:56:06;;;;;;;56.38;51.83;;;5.20;99.90;;;;;;5095291;28;20044;-68
2022/12/27 08:58:32;;;;;;;58.75;54.35;;;5.20;99.90;;;;;;5095692;28;20036;-67
2022/12/27 09:01:08;;;;;;;67.10;62.53;;;5.10;99.90;;;;;;5087681;28;20036;-67
2022/12/27 09:03:34;;;;;;;;;;;5.20;99.90;;;;;;5075665;28;20044;-67
2022/12/27 09:06:18;;;;;;;62.50;57.97;;;5.10;99.90;;;;;;5075309;28;19966;-70
2022/12/27 09:08:45;;;;;;;64.60;60.20;;;5.20;99.90;;;;;;5094738;28;20443;-67
2022/12/27 09:11:14;;;;;;;57.83;53.28;;;5.20;99.90;;;;;;5096235;28;20437;-67
2022/12/27 09:13:40;;;;;;;61.58;57.60;;;5.20;99.90;;;;;;5095210;28;20440;-67
2022/12/27 09:16:13;;;;;;;63.10;58.30;;;5.30;99.90;;;;;;5096470;28;20043;-74
2022/12/27 09:18:41;;;;;;;61.90;57.25;;;5.30;99.90;;;;;;5088198;28;20449;-67
2022/12/27 09:21:12;;;;;;;60.83;56.65;;;5.40;99.90;;;;;;5074903;28;20036;-67
2022/12/27 09:23:39;;;;;;;61.17;56.67;;;5.50;99.90;;;;;;5076242;28;20043;-67
2022/12/27 09:26:13;;;;;;;64.25;59.35;;;5.50;99.90;;;;;;5075972;28;20052;-67
2022/12/27 09:28:39;;;;;;;58.20;54.47;;;5.80;99.90;;;;;;5075992;28;20056;-67
2022/12/27 09:31:06;;;;;;;59.38;55.38;;;5.70;99.90;;;;;;5075734;28;20051;-67
2022/12/27 09:33:32;;;;;;;58.22;54.30;;;5.50;99.90;;;;;;5076219;28;20075;-67
2022/12/27 09:36:05;;;;;;;58.08;54.15;;;5.70;99.90;;;;;;5076397;28;20083;-67
2022/12/27 09:38:31;;;;;;;55.35;51.22;;;5.70;99.90;;;;;;5093307;28;20040;-67
2022/12/27 09:40:59;;;;;;;56.22;52.45;;;5.80;99.90;;;;;;5096264;28;20040;-67
2022/12/27 09:43:59;;;;;;;57.75;52.95;;;5.70;99.90;;;;;;5094029;28;20059;-67
2022/12/27 09:46:32;;;;;;;58.58;54.83;;;5.90;99.90;;;;;;5086509;28;20036;-67
2022/12/27 09:48:58;;;;;;;55.45;51.97;;;6.00;99.90;;;;;;5078777;28;20066;-67
2022/12/27 09:51:34;;;;;;;55.72;51.80;;;6.00;99.90;;;;;;5108492;28;20131;-67
2022/12/27 09:54:13;;;;;;;54.60;50.05;;;6.00;99.90;;;;;;5076209;28;20044;-67
2022/12/27 09:56:39;;;;;;;53.78;50.03;;;5.90;99.90;;;;;;5108861;28;20333;-66
2022/12/27 09:59:11;;;;;;;55.92;51.50;;;6.00;99.90;;;;;;5076030;28;20037;-66
2022/12/27 10:01:41;;;;;;;56.03;52.17;;;6.00;99.90;;;;;;5074392;28;20080;-65
2022/12/27 10:04:12;;;;;;;52.70;48.58;;;6.00;99.90;;;;;;5077564;28;20036;-66
2022/12/27 10:07:06;;;;;;;57.80;53.50;;;6.00;99.90;;;;;;5079522;28;20041;-67
2022/12/27 10:09:59;;;;;;;55.95;51.85;;;6.20;99.90;;;;;;5079527;28;20330;-68
2022/12/27 10:13:08;;;;;;;50.10;46.30;;;6.40;99.90;;;;;;5077949;28;20200;-67
2022/12/27 10:16:24;;;;;;;50.30;46.97;;;6.60;99.90;;;;;;5079500;28;20059;-66
2022/12/27 10:19:01;;;;;;;49.83;46.20;;;6.70;99.90;;;;;;5077182;28;20438;-67
2022/12/27 10:21:28;;;;;;;49.28;45.85;;;6.80;99.90;;;;;;5075660;28;20044;-67
2022/12/27 10:24:09;;;;;;;47.70;44.22;;;6.90;99.90;;;;;;5078927;28;20338;-67
2022/12/27 10:26:37;;;;;;;43.85;40.90;;;7.10;99.90;;;;;;5078892;28;20059;-66
2022/12/27 10:29:23;;;;;;;46.88;43.67;;;7.00;99.90;;;;;;5078988;28;20106;-73
2022/12/27 10:31:49;;;;;;;45.85;42.58;;;6.80;99.90;;;;;;5111848;28;20413;-68
2022/12/27 10:34:17;;;;;;;45.05;41.58;;;6.90;99.90;;;;;;5079120;28;20032;-67
2022/12/27 10:36:44;;;;;;;53.95;49.83;;;7.10;99.90;;;;;;5111317;28;20080;-67
2022/12/27 10:39:27;;;;;;;51.53;47.75;;;7.30;99.90;;;;;;5078745;28;20037;-66
2022/12/27 10:41:59;;;;;;;44.40;40.50;;;7.50;99.90;;;;;;5079137;28;20115;-67
2022/12/27 10:44:25;;;;;;;43.70;39.50;;;7.40;99.90;;;;;;5078935;28;20040;-66
2022/12/27 10:46:53;;;;;;;41.85;39.08;;;7.40;99.90;;;;;;5077776;28;20032;-66
2022/12/27 10:49:28;;;;;;;44.47;40.53;;;7.20;99.90;;;;;;5078801;28;20074;-67
2022/12/27 10:52:17;;;;;;;35.08;32.10;;;7.10;99.90;;;;;;5078797;28;20044;-67
2022/12/27 10:54:56;;;;;;;39.72;36.28;;;7.10;99.90;;;;;;5078459;28;20093;-67
2022/12/27 10:57:28;;;;;;;34.95;31.98;;;7.10;99.90;;;;;;5078662;28;20048;-67
2022/12/27 11:00:18;;;;;;;37.40;34.00;;;7.20;99.90;;;;;;5078575;28;20056;-67
2022/12/27 11:02:55;;;;;;;31.02;28.13;;;7.30;99.90;;;;;;5078613;28;20048;-67
2022/12/27 11:05:22;;;;;;;26.10;23.98;;;7.30;99.90;;;;;;5078515;28;20086;-70
2022/12/27 11:07:48;;;;;;;27.73;25.45;;;7.40;99.90;;;;;;5077970;28;20066;-66
2022/12/27 11:10:19;;;;;;;22.02;19.05;;;7.60;99.90;;;;;;5111044;28;20429;-66
2022/12/27 11:13:05;;;;;;;24.48;22.23;;;7.60;99.90;;;;;;5078342;28;20119;-66
2022/12/27 11:15:36;;;;;;;26.20;23.73;;;7.70;99.90;;;;;;5077448;28;20467;-66
2022/12/27 11:18:18;;;;;;;21.08;18.30;;;7.90;99.90;;;;;;5078202;28;20049;-66
2022/12/27 11:20:49;;;;;;;22.63;20.23;;;7.70;99.90;;;;;;5078314;28;20048;-66
2022/12/27 11:23:17;;;;;;;29.92;27.05;;;7.70;99.90;;;;;;5110732;28;20449;-66
2022/12/27 11:25:53;;;;;;;30.33;27.58;;;7.80;99.90;;;;;;5076764;28;20047;-69
2022/12/27 11:28:27;;;;;;;25.55;23.27;;;8.00;99.90;;;;;;5110462;28;20372;-68
2022/12/27 11:31:02;;;;;;;25.35;20.13;;;7.80;99.90;;;;;;5077633;28;20127;-67
2022/12/27 11:33:38;;;;;;;24.90;22.15;;;7.80;99.90;;;;;;5078000;28;20048;-67
2022/12/27 11:36:06;;;;;;;27.48;24.80;;;7.70;99.90;;;;;;5077965;28;20044;-66
2022/12/27 11:38:33;;;;;;;17.63;16.17;;;7.60;99.90;;;;;;5077421;28;20093;-66
2022/12/27 11:41:10;;;;;;;18.48;14.07;;;7.60;99.90;;;;;;5077372;28;20040;-67
2022/12/27 11:43:54;;;;;;;18.95;14.80;;;7.90;99.90;;;;;;5110091;28;20048;-66
2022/12/27 11:46:56;;;;;;;23.08;21.08;;;8.20;99.90;;;;;;5077306;28;20044;-67
2022/12/27 11:49:26;;;;;;;29.05;26.45;;;8.30;99.90;;;;;;5077442;28;20045;-67
2022/12/27 11:52:07;;;;;;;25.00;22.35;;;8.20;99.90;;;;;;5077537;28;20048;-69
2022/12/27 11:54:44;;;;;;;24.52;22.02;;;7.90;99.90;;;;;;5077590;28;20174;-66
2022/12/27 11:57:19;;;;;;;26.02;23.42;;;7.80;99.90;;;;;;5077410;28;20048;-66
2022/12/27 12:00:11;;;;;;;39.75;36.75;;;7.70;99.90;;;;;;5077464;28;20032;-66
2022/12/27 12:03:05;;;;;;;32.78;30.67;;;7.80;99.90;;;;;;5076746;28;20045;-67
2022/12/27 12:06:06;;;;;;;30.92;28.42;;;7.90;99.90;;;;;;5093165;28;20087;-66
2022/12/27 12:08:34;;;;;;;26.77;24.45;;;8.00;99.90;;;;;;5076794;28;20041;-66
2022/12/27 12:11:03;;;;;;;35.22;32.28;;;7.70;99.90;;;;;;5077192;28;20051;-66
2022/12/27 12:13:55;;;;;;;26.08;22.90;;;7.80;99.90;;;;;;5077115;28;20410;-67
2022/12/27 12:16:55;;;;;;;26.10;23.55;;;7.80;99.90;;;;;;5051199;28;20093;-67
2022/12/27 12:19:20;;;;;;;24.00;21.63;;;7.80;99.90;;;;;;5076614;28;20055;-66
2022/12/27 12:22:05;;;;;;;22.90;20.58;;;8.20;99.90;;;;;;5109626;28;20044;-66
2022/12/27 12:24:36;;;;;;;31.13;28.25;;;8.40;99.90;;;;;;5076884;28;20119;-66
2022/12/27 12:27:21;;;;;;;30.77;28.25;;;8.20;99.90;;;;;;5075742;28;20067;-66
2022/12/27 12:30:05;;;;;;;35.35;32.22;;;8.10;99.90;;;;;;5076800;28;20163;-66
2022/12/27 12:33:09;;;;;;;30.10;27.73;;;8.30;99.90;;;;;;5076637;28;20502;-66
2022/12/27 12:36:02;;;;;;;33.83;30.45;;;8.50;99.90;;;;;;5109457;28;20400;-67
2022/12/27 12:38:53;;;;;;;28.52;25.88;;;8.40;99.90;;;;;;5092330;28;20053;-66
2022/12/27 12:41:46;;;;;;;29.15;26.58;;;8.30;99.90;;;;;;5075837;28;20051;-66
2022/12/27 12:44:50;;;;;;;34.25;30.85;;;8.30;99.90;;;;;;5076777;28;20044;-67
2022/12/27 12:47:48;;;;;;;40.38;37.15;;;8.30;99.90;;;;;;5074177;28;20045;-67
2022/12/27 12:50:51;;;;;;;42.05;38.80;;;8.30;99.90;;;;;;5076575;28;20036;-68
2022/12/27 12:53:51;;;;;;;43.03;39.85;;;8.10;99.90;;;;;;5109572;28;20090;-67
2022/12/27 12:56:42;;;;;;;47.60;44.33;;;7.90;99.90;;;;;;5076394;28;20124;-67
2022/12/27 12:59:26;;;;;;;40.17;36.90;;;7.90;99.90;;;;;;5075439;28;20033;-67
2022/12/27 13:02:07;;;;;;;46.08;42.38;;;7.70;99.90;;;;;;5076606;28;20041;-67
2022/12/27 13:04:56;;;;;;;39.15;35.88;;;7.70;99.90;;;;;;5076683;28;20041;-67
2022/12/27 13:08:13;;;;;;;46.03;43.00;;;7.70;99.90;;;;;;5076172;28;20044;-67
2022/12/27 13:10:57;;;;;;;43.78;40.80;;;7.80;99.90;;;;;;5075386;28;20052;-66
2022/12/27 13:13:51;;;;;;;43.42;39.97;;;7.80;99.90;;;;;;5075511;28;20072;-67
2022/12/27 13:16:44;;;;;;;47.53;43.25;;;7.70;99.90;;;;;;5076548;28;20037;-67
2022/12/27 13:19:22;;;;;;;47.88;43.63;;;7.70;99.90;;;;;;5076526;28;20041;-67
2022/12/27 13:22:36;;;;;;;48.78;45.42;;;7.70;99.90;;;;;;5092023;28;20040;-67
2022/12/27 13:25:23;;;;;;;42.03;39.33;;;7.90;99.90;;;;;;5074629;28;20169;-67
2022/12/27 13:28:04;;;;;;;34.25;31.77;;;8.20;99.90;;;;;;5075759;28;20088;-67
2022/12/27 13:30:47;;;;;;;30.52;28.15;;;8.30;99.90;;;;;;5109193;28;20047;-67
2022/12/27 13:33:28;;;;;;;32.72;30.25;;;8.50;99.90;;;;;;5076364;28;20040;-67
2022/12/27 13:36:25;;;;;;;33.65;31.10;;;8.40;99.90;;;;;;5108941;28;20433;-67
2022/12/27 13:39:31;;;;;;;36.95;34.15;;;8.40;99.90;;;;;;5077287;28;20489;-67
2022/12/27 13:42:27;;;;;;;35.92;33.22;;;8.30;99.90;;;;;;5078889;28;20056;-67
2022/12/27 13:44:53;;;;;;;40.08;37.05;;;8.40;99.90;;;;;;5113002;28;20041;-67
2022/12/27 13:47:37;;;;;;;44.58;41.08;;;8.40;99.90;;;;;;5112736;28;20444;-67
2022/12/27 13:50:18;;;;;;;49.22;45.80;;;8.30;99.90;;;;;;5112809;28;20044;-66
2022/12/27 13:53:34;;;;;;;47.80;44.17;;;8.10;99.90;;;;;;5112475;28;20051;-67
2022/12/27 13:56:25;;;;;;;57.40;53.60;;;8.20;99.90;;;;;;5077842;28;20051;-67
2022/12/27 13:59:24;;;;;;;62.20;57.92;;;8.30;99.90;;;;;;5077661;28;20044;-66
2022/12/27 14:02:26;;;;;;;74.03;69.35;;;8.10;99.90;;;;;;5058808;28;20124;-67
2022/12/27 14:05:01;;;;;;;78.00;73.15;;;7.80;99.90;;;;;;5079272;28;20056;-67
2022/12/27 14:07:54;;;;;;;72.30;67.00;;;7.70;99.90;;;;;;5078759;28;20044;-67
2022/12/27 14:10:43;;;;;;;67.03;62.55;;;7.70;99.90;;;;;;5112350;28;20041;-67
2022/12/27 14:13:10;;;;;;;70.38;65.18;;;7.80;99.90;;;;;;5079510;28;20041;-67
2022/12/27 14:15:41;;;;;;;64.85;60.30;;;7.80;99.90;;;;;;5079276;28;20170;-67
2022/12/27 14:18:44;;;;;;;65.22;60.38;;;7.80;99.90;;;;;;5079467;28;20397;-67
2022/12/27 14:21:36;;;;;;;58.38;53.45;;;7.90;99.90;;;;;;5079413;28;20307;-67
2022/12/27 14:24:48;;;;;;;54.25;50.70;;;8.00;99.90;;;;;;5112055;28;20059;-70
2022/12/27 14:27:51;;;;;;;54.08;50.50;;;8.00;99.90;;;;;;5050284;28;20056;-67
2022/12/27 14:30:43;;;;;;;54.58;50.55;;;8.20;99.90;;;;;;5111876;28;20073;-67
2022/12/27 14:33:47;;;;;;;65.10;60.58;;;8.00;99.90;;;;;;5078044;28;20361;-67
2022/12/27 14:36:39;;;;;;;69.75;65.47;;;8.00;99.90;;;;;;5078086;28;20341;-67
2022/12/27 14:39:24;;;;;;;64.68;60.40;;;7.90;99.90;;;;;;5111324;28;20127;-67
2022/12/27 14:42:27;;;;;;;58.60;54.33;;;7.90;99.90;;;;;;5077658;28;20497;-67
2022/12/27 14:45:11;;;;;;;60.80;56.60;;;7.80;99.90;;;;;;5078632;28;20051;-67
2022/12/27 14:47:59;;;;;;;64.63;60.75;;;7.90;99.90;;;;;;5078487;28;20093;-67
2022/12/27 14:50:45;;;;;;;57.35;53.13;;;7.90;99.90;;;;;;5077848;28;20041;-67
2022/12/27 14:53:29;;;;;;;63.38;59.03;;;8.00;99.90;;;;;;5078885;28;20044;-72
2022/12/27 14:56:06;;;;;;;60.38;55.92;;;8.10;99.90;;;;;;5078730;28;20123;-67
2022/12/27 14:58:57;;;;;;;58.65;54.03;;;8.10;99.90;;;;;;5078414;28;20124;-67
2022/12/27 15:01:49;;;;;;;57.05;53.38;;;7.90;99.90;;;;;;5094470;28;20376;-69
2022/12/27 15:04:44;;;;;;;56.33;52.72;;;8.00;99.90;;;;;;5077389;28;20052;-70